Time;durP1;ratioP1;P1;durP2;ratioP2;P2;SDS_P1;SDS_P2;PMS_P1;PMS_P2;Temp;Humidity;BMP_temperature;BMP_pressure;BME280_temperature;BME280_humidity;BME280_pressure;Samples;Min_cycle;Max_cycle;Signal;HPM_P1;HPM_P2
2021/01/16 00:00:10;;;;;;;17.23;7.83;;;;;;;-3.61;79.91;98999.90;250459;1148;23116;-79
2021/01/16 00:05:17;;;;;;;14.10;6.65;;;;;;;-3.67;79.91;98999.84;250355;1148;22946;-79
2021/01/16 00:10:19;;;;;;;10.00;5.55;;;;;;;-3.76;79.52;98999.18;250133;1148;22910;-80
2021/01/16 00:15:22;;;;;;;14.57;6.43;;;;;;;-3.82;79.35;98999.92;250095;1148;22962;-79
2021/01/16 00:20:26;;;;;;;10.33;5.93;;;;;;;-3.94;79.30;98999.63;250264;1147;22960;-79
2021/01/16 00:25:28;;;;;;;10.93;5.43;;;;;;;-3.98;79.23;98993.95;250154;1148;25896;-77
2021/01/16 00:30:34;;;;;;;10.00;5.20;;;;;;;-3.98;79.87;98990.54;250305;1148;23000;-77
2021/01/16 00:35:36;;;;;;;11.07;5.40;;;;;;;-4.00;79.17;98992.52;249938;1148;22966;-79
2021/01/16 00:40:38;;;;;;;11.87;5.13;;;;;;;-4.06;79.36;98988.05;250161;1148;23118;-79
2021/01/16 00:45:42;;;;;;;10.60;5.37;;;;;;;-4.14;79.31;98984.56;250150;1148;22919;-79
2021/01/16 00:50:45;;;;;;;11.30;5.07;;;;;;;-4.16;79.17;98993.59;250050;1148;24608;-77
2021/01/16 00:55:52;;;;;;;9.63;4.67;;;;;;;-4.15;79.03;98990.79;250468;1148;23107;-79
2021/01/16 01:00:54;;;;;;;7.93;4.27;;;;;;;-4.14;78.97;99004.67;250133;1148;22970;-80
2021/01/16 01:05:59;;;;;;;8.77;4.43;;;;;;;-4.14;78.71;99007.28;250066;1148;22893;-79
2021/01/16 01:11:01;;;;;;;8.57;4.90;;;;;;;-4.16;78.66;99010.09;250005;1148;22945;-79
2021/01/16 01:16:05;;;;;;;12.30;5.50;;;;;;;-4.19;78.77;99009.67;250163;1148;22976;-79
2021/01/16 01:21:07;;;;;;;11.83;5.97;;;;;;;-4.21;79.08;99016.88;250242;1148;22977;-80
2021/01/16 01:26:09;;;;;;;10.73;4.70;;;;;;;-4.23;78.99;99009.23;250308;1148;22950;-78
2021/01/16 01:31:11;;;;;;;8.47;4.07;;;;;;;-4.24;78.89;99006.80;250072;1148;22970;-79
2021/01/16 01:36:14;;;;;;;10.40;5.73;;;;;;;-4.32;79.15;98999.89;250454;1148;23112;-80
2021/01/16 01:41:16;;;;;;;11.07;5.57;;;;;;;-4.27;78.91;99009.79;250188;1148;22943;-79
2021/01/16 01:46:18;;;;;;;10.40;5.40;;;;;;;-4.26;79.14;99006.98;250416;1148;22977;-80
2021/01/16 01:51:23;;;;;;;9.30;4.50;;;;;;;-4.27;79.09;99005.36;250107;1148;22882;-79
2021/01/16 01:56:26;;;;;;;7.93;4.67;;;;;;;-4.28;78.95;98998.53;250364;1148;22977;-80
2021/01/16 02:01:29;;;;;;;9.53;3.73;;;;;;;-4.28;78.97;98995.08;250094;1148;22943;-79
2021/01/16 02:06:31;;;;;;;8.93;4.23;;;;;;;-4.25;79.42;98994.70;250164;1148;22980;-80
2021/01/16 02:11:34;;;;;;;8.57;4.70;;;;;;;-4.24;78.87;98991.09;250206;1148;22948;-80
2021/01/16 02:16:44;;;;;;;10.47;4.80;;;;;;;-4.29;79.22;98994.28;250155;1148;22956;-79
2021/01/16 02:21:47;;;;;;;13.93;6.17;;;;;;;-4.28;78.86;98989.85;250377;1148;22982;-78
2021/01/16 02:27:02;;;;;;;12.27;5.63;;;;;;;-4.33;79.05;98983.38;250330;1148;26766;-77
2021/01/16 02:32:06;;;;;;;11.97;5.83;;;;;;;-4.30;79.54;98988.22;250110;1148;23312;-79
2021/01/16 02:37:36;;;;;;;14.23;5.97;;;;;;;-4.42;78.78;98981.06;250034;1148;23100;-78
2021/01/16 02:43:08;;;;;;;14.40;6.87;;;;;;;-4.52;79.04;98978.75;250240;1148;23037;-79
2021/01/16 02:48:22;;;;;;;14.10;7.33;;;;;;;-4.61;78.86;98990.33;250175;1148;22964;-79
2021/01/16 02:53:24;;;;;;;13.00;7.60;;;;;;;-4.60;79.20;98997.16;250330;1148;23460;-80
2021/01/16 02:58:28;;;;;;;18.33;8.83;;;;;;;-4.59;79.75;98983.10;250096;1147;22896;-79
2021/01/16 03:03:31;;;;;;;15.30;7.57;;;;;;;-4.50;79.80;98988.03;250233;1148;22976;-78
2021/01/16 03:08:34;;;;;;;17.10;8.90;;;;;;;-4.48;79.71;98988.67;250186;1148;22952;-77
2021/01/16 03:13:38;;;;;;;16.57;8.17;;;;;;;-4.32;80.11;98984.20;250336;1148;23087;-80
2021/01/16 03:18:45;;;;;;;17.43;8.00;;;;;;;-4.24;79.79;98984.08;250386;1147;22977;-79
2021/01/16 03:23:48;;;;;;;14.57;7.07;;;;;;;-4.28;79.99;98987.23;250442;1148;22970;-79
2021/01/16 03:28:50;;;;;;;10.90;5.37;;;;;;;-4.25;80.49;98985.07;250235;1148;23042;-79
2021/01/16 03:33:52;;;;;;;9.93;4.73;;;;;;;-4.22;80.63;98984.69;250061;1148;23030;-78
2021/01/16 03:38:55;;;;;;;9.60;4.97;;;;;;;-4.20;80.48;98989.73;250092;1148;22966;-79
2021/01/16 03:43:57;;;;;;;9.33;5.20;;;;;;;-4.19;80.23;98983.52;250244;1148;22971;-79
2021/01/16 03:48:59;;;;;;;10.17;5.97;;;;;;;-4.21;80.26;98980.25;250271;1148;23054;-78
2021/01/16 03:54:01;;;;;;;9.83;5.33;;;;;;;-4.21;80.85;98985.48;250010;1148;23025;-78
2021/01/16 03:59:04;;;;;;;10.30;5.10;;;;;;;-4.21;81.04;98981.09;250146;1148;22942;-82
2021/01/16 04:04:06;;;;;;;11.87;5.63;;;;;;;-4.21;80.62;98975.02;250160;1148;23444;-79
2021/01/16 04:09:09;;;;;;;7.17;4.10;;;;;;;-4.22;80.82;98979.45;249914;1148;23103;-79
2021/01/16 04:14:11;;;;;;;6.95;4.20;;;;;;;-4.25;80.67;98977.22;250267;1148;23039;-79
2021/01/16 04:19:13;;;;;;;7.63;4.57;;;;;;;-4.25;80.97;98986.86;250145;1148;23089;-79
2021/01/16 04:24:15;;;;;;;6.77;4.40;;;;;;;-4.25;80.82;98989.47;249963;1148;22953;-82
2021/01/16 04:29:17;;;;;;;7.73;4.80;;;;;;;-4.25;80.77;98986.86;250117;1148;23325;-79
2021/01/16 04:34:19;;;;;;;7.77;4.60;;;;;;;-4.24;80.92;98988.48;250090;1148;22907;-77
2021/01/16 04:39:22;;;;;;;11.17;6.20;;;;;;;-4.23;80.84;98987.50;250110;1147;22967;-79
2021/01/16 04:44:27;;;;;;;8.47;4.50;;;;;;;-4.23;80.70;98992.73;250124;1148;22948;-78
2021/01/16 04:49:31;;;;;;;9.13;5.07;;;;;;;-4.26;81.19;98993.11;250069;1148;25995;-77
2021/01/16 04:54:34;;;;;;;7.63;4.77;;;;;;;-4.28;81.43;98995.91;249964;1148;23431;-77
2021/01/16 04:59:36;;;;;;;8.80;4.77;;;;;;;-4.28;81.17;98992.47;249975;1148;22933;-80
2021/01/16 05:04:39;;;;;;;9.77;5.93;;;;;;;-4.30;81.55;98998.69;249919;1148;23206;-79
2021/01/16 05:09:44;;;;;;;9.90;5.65;;;;;;;-4.31;81.17;98996.26;250059;1148;26812;-78
2021/01/16 05:15:08;;;;;;;9.67;5.43;;;;;;;-4.31;81.59;98991.03;250154;1148;22978;-79
2021/01/16 05:20:13;;;;;;;8.20;5.00;;;;;;;-4.36;81.27;98988.98;250252;1148;22984;-77
2021/01/16 05:25:15;;;;;;;9.90;5.90;;;;;;;-4.37;81.45;98989.17;250217;1148;22969;-77
2021/01/16 05:30:19;;;;;;;7.80;5.27;;;;;;;-4.42;81.57;98989.73;250193;1148;23038;-79
2021/01/16 05:35:22;;;;;;;8.87;5.10;;;;;;;-4.45;81.27;98994.52;249977;1148;23027;-79
2021/01/16 05:40:28;;;;;;;8.27;4.90;;;;;;;-4.45;81.19;98987.47;250277;1148;23158;-79
2021/01/16 05:45:34;;;;;;;7.90;4.63;;;;;;;-4.47;81.41;98992.09;250113;1148;24906;-78
2021/01/16 05:50:39;;;;;;;11.33;5.00;;;;;;;-4.50;81.29;98987.23;250585;1148;23109;-80
2021/01/16 05:55:43;;;;;;;8.70;5.53;;;;;;;-4.51;81.33;98996.86;250048;1148;22941;-77
2021/01/16 06:00:50;;;;;;;7.33;4.50;;;;;;;-4.49;81.57;98976.59;250245;1148;23086;-78
2021/01/16 06:05:52;;;;;;;6.03;4.17;;;;;;;-4.50;81.56;98990.65;250218;1148;22962;-77
2021/01/16 06:10:56;;;;;;;11.00;6.00;;;;;;;-4.51;81.26;98996.06;250194;1148;25918;-79
2021/01/16 06:16:04;;;;;;;7.50;5.13;;;;;;;-4.51;81.66;98986.41;249917;1148;22970;-78
2021/01/16 06:21:08;;;;;;;10.35;5.40;;;;;;;-4.50;81.20;98984.63;250029;1148;22961;-79
2021/01/16 06:26:13;;;;;;;11.60;5.77;;;;;;;-4.50;81.31;98977.58;250048;1148;22944;-79
2021/01/16 06:31:23;;;;;;;6.87;4.37;;;;;;;-4.48;81.43;98980.83;250340;1148;22949;-77
2021/01/16 06:36:33;;;;;;;9.60;5.53;;;;;;;-4.46;81.46;98978.02;250208;1148;22953;-78
2021/01/16 06:41:38;;;;;;;9.43;4.87;;;;;;;-4.45;81.45;98981.44;249918;1148;23248;-79
2021/01/16 06:46:48;;;;;;;10.10;4.90;;;;;;;-4.42;80.95;98986.30;250085;1148;23215;-79
2021/01/16 06:51:52;;;;;;;10.57;5.70;;;;;;;-4.40;81.03;98984.31;250054;1148;22994;-78
2021/01/16 06:57:08;;;;;;;6.77;4.00;;;;;;;-4.39;81.22;98989.36;250159;1148;23026;-78
2021/01/16 07:02:35;;;;;;;9.73;5.73;;;;;;;-4.35;80.88;98985.38;250027;1148;22952;-79
2021/01/16 07:07:40;;;;;;;8.80;4.93;;;;;;;-4.28;81.15;98992.47;250167;1148;22956;-80
2021/01/16 07:12:48;;;;;;;11.20;5.13;;;;;;;-4.26;80.78;98995.72;250294;1148;25919;-76
2021/01/16 07:17:50;;;;;;;11.73;5.20;;;;;;;-4.23;80.78;98993.53;250004;1148;23028;-78
2021/01/16 07:22:53;;;;;;;8.50;4.80;;;;;;;-4.17;80.87;98987.56;250024;1148;22998;-80
2021/01/16 07:27:56;;;;;;;11.33;6.13;;;;;;;-4.14;80.69;98989.80;250165;1148;22945;-80
2021/01/16 07:33:02;;;;;;;11.23;5.57;;;;;;;-4.07;80.62;98996.89;250118;1148;22950;-79
2021/01/16 07:38:07;;;;;;;8.33;5.30;;;;;;;-4.00;80.42;98998.58;250171;1147;26367;-76
2021/01/16 07:43:25;;;;;;;10.83;5.17;;;;;;;-3.97;80.37;98985.11;250332;1148;24407;-80
2021/01/16 07:48:32;;;;;;;7.30;4.40;;;;;;;-3.90;80.49;98982.55;250270;1148;24551;-78
2021/01/16 07:53:42;;;;;;;12.30;5.60;;;;;;;-3.77;80.02;98991.52;250578;1148;22952;-78
2021/01/16 07:58:55;;;;;;;12.23;6.47;;;;;;;-3.71;80.23;98991.55;250863;1147;22964;-80
2021/01/16 08:04:12;;;;;;;10.10;5.20;;;;;;;-3.66;79.81;98989.17;251275;1147;23401;-79
2021/01/16 08:09:21;;;;;;;10.50;5.73;;;;;;;-3.64;79.30;98991.59;250648;1148;22945;-76
2021/01/16 08:14:23;;;;;;;10.77;6.10;;;;;;;-3.56;79.86;98994.08;250767;1148;22904;-77
2021/01/16 08:19:32;;;;;;;12.93;6.53;;;;;;;-3.49;79.64;98983.66;251136;1148;23340;-81
2021/01/16 08:24:38;;;;;;;11.78;6.58;;;;;;;-3.45;79.28;98987.52;252070;1148;26361;-78
2021/01/16 08:29:45;;;;;;;9.60;5.50;;;;;;;-3.42;79.63;98988.94;250916;1147;24549;-81
2021/01/16 08:35:01;;;;;;;12.63;6.07;;;;;;;-3.42;79.91;98988.94;250797;1148;22970;-79
2021/01/16 08:40:10;;;;;;;14.20;7.60;;;;;;;-3.41;79.47;98993.16;250819;1148;23422;-81
2021/01/16 08:45:13;;;;;;;10.33;5.73;;;;;;;-3.35;79.89;99001.06;250596;1148;23025;-78
2021/01/16 08:50:15;;;;;;;9.70;5.60;;;;;;;-3.28;79.47;99001.11;250668;1148;22893;-79
2021/01/16 08:55:25;;;;;;;8.87;4.33;;;;;;;-3.26;79.50;98996.47;252176;1148;23104;-80
2021/01/16 09:00:29;;;;;;;11.23;5.33;;;;;;;-3.24;80.11;99009.41;251001;1148;26517;-81
2021/01/16 09:05:34;;;;;;;11.13;5.40;;;;;;;-3.29;80.04;99016.03;251383;1148;22966;-79
2021/01/16 09:10:38;;;;;;;9.47;5.77;;;;;;;-3.27;80.37;99006.16;251154;1147;23058;-80
2021/01/16 09:15:42;;;;;;;7.87;4.77;;;;;;;-3.08;80.88;99009.08;250888;1148;23003;-80
2021/01/16 09:21:02;;;;;;;9.03;5.50;;;;;;;-2.90;80.06;99003.32;251385;1148;22945;-79
2021/01/16 09:26:04;;;;;;;8.83;5.27;;;;;;;-2.73;79.31;99002.98;251081;1147;22970;-80
2021/01/16 09:31:39;;;;;;;8.97;5.30;;;;;;;-2.59;79.28;99009.89;251290;1148;22948;-79
2021/01/16 09:36:58;;;;;;;9.60;4.73;;;;;;;-2.45;79.57;98995.00;251831;1148;22980;-81
2021/01/16 09:42:20;;;;;;;9.95;5.60;;;;;;;-2.38;78.07;98995.02;251569;1148;22962;-80
2021/01/16 09:47:25;;;;;;;8.27;4.90;;;;;;;-2.39;77.61;98990.78;251136;1148;22995;-80
2021/01/16 09:52:31;;;;;;;11.50;5.60;;;;;;;-2.31;77.92;98983.55;251060;1148;22950;-80
2021/01/16 09:57:34;;;;;;;7.10;4.70;;;;;;;-2.24;77.98;98981.73;251058;1148;22984;-81
2021/01/16 10:02:42;;;;;;;9.30;5.00;;;;;;;-2.24;77.87;98984.36;251462;1147;26392;-78
2021/01/16 10:07:44;;;;;;;8.27;5.23;;;;;;;-2.24;76.92;98976.48;251322;1148;22944;-81
2021/01/16 10:12:47;;;;;;;10.47;5.30;;;;;;;-2.16;76.95;98977.30;251980;1148;22957;-80
2021/01/16 10:17:55;;;;;;;11.57;6.37;;;;;;;-2.00;76.34;98976.09;252191;1148;22924;-79
2021/01/16 10:22:59;;;;;;;9.77;5.10;;;;;;;-1.90;76.00;98956.30;251376;1148;22892;-80
2021/01/16 10:28:02;;;;;;;8.07;4.80;;;;;;;-1.93;76.17;98955.89;251283;1148;22961;-82
2021/01/16 10:33:20;;;;;;;6.43;4.47;;;;;;;-2.05;76.23;98947.83;251276;1148;23107;-80
2021/01/16 10:38:39;;;;;;;6.97;4.00;;;;;;;-2.04;75.66;98948.63;251934;1148;22919;-80
2021/01/16 10:43:43;;;;;;;7.75;4.60;;;;;;;-2.07;75.65;98952.45;251760;1148;25919;-81
2021/01/16 10:48:45;;;;;;;9.50;4.40;;;;;;;-2.12;74.72;98942.56;251390;1148;23206;-79
2021/01/16 10:53:56;;;;;;;6.67;4.40;;;;;;;-2.19;73.83;98944.39;251213;1148;26433;-79
2021/01/16 10:59:08;;;;;;;;;;;;;;;-2.28;73.90;98937.70;251296;1148;23103;-80
2021/01/16 11:04:23;;;;;;;9.03;4.27;;;;;;;-2.48;73.34;98932.44;251379;1148;21626;-80
2021/01/16 11:09:34;;;;;;;5.73;3.27;;;;;;;-2.61;73.41;98930.61;251003;1148;25905;-78
2021/01/16 11:14:43;;;;;;;6.50;3.75;;;;;;;-2.70;74.10;98932.61;251038;1148;22980;-78
2021/01/16 11:19:53;;;;;;;5.50;3.03;;;;;;;-2.67;73.65;98916.47;250861;1148;23040;-79
2021/01/16 11:25:13;;;;;;;5.70;3.17;;;;;;;-2.62;73.31;98919.28;250926;1148;25706;-80
2021/01/16 11:30:18;;;;;;;5.55;2.65;;;;;;;-2.51;73.34;98922.35;251014;1148;22982;-81
2021/01/16 11:35:38;;;;;;;6.10;2.83;;;;;;;-2.51;73.71;98911.86;251231;1147;23297;-80
2021/01/16 11:40:46;;;;;;;7.13;3.33;;;;;;;-2.61;73.82;98901.75;251959;1148;22979;-78
2021/01/16 11:45:48;;;;;;;5.83;2.57;;;;;;;-2.58;73.32;98898.73;251128;1147;22939;-77
2021/01/16 11:50:50;;;;;;;6.37;3.03;;;;;;;-2.67;72.81;98903.36;250383;1148;22934;-79
2021/01/16 11:56:01;;;;;;;6.03;3.57;;;;;;;-2.79;73.06;98894.45;250670;1147;23405;-78
2021/01/16 12:01:05;;;;;;;7.20;3.30;;;;;;;-2.88;73.07;98898.25;251610;1148;23094;-78
2021/01/16 12:06:13;;;;;;;8.20;4.17;;;;;;;-2.95;72.63;98898.25;251468;1147;22937;-78
2021/01/16 12:11:16;;;;;;;7.43;3.77;;;;;;;-3.07;73.57;98887.52;251300;1148;22924;-79
2021/01/16 12:16:19;;;;;;;8.63;3.60;;;;;;;-3.11;73.19;98887.09;250733;1148;23068;-79
2021/01/16 12:21:25;;;;;;;7.53;3.80;;;;;;;-3.07;73.26;98887.52;250526;1148;22963;-81
2021/01/16 12:26:32;;;;;;;6.70;3.70;;;;;;;-3.11;72.15;98888.91;250684;1148;23134;-78
2021/01/16 12:31:41;;;;;;;5.43;3.00;;;;;;;-3.12;72.63;98879.42;250607;1147;22879;-78
2021/01/16 12:36:47;;;;;;;8.20;4.13;;;;;;;-3.11;72.69;98873.19;250702;1147;23026;-78
2021/01/16 12:41:50;;;;;;;7.45;3.60;;;;;;;-3.17;72.36;98869.54;250597;1147;22973;-79
2021/01/16 12:46:53;;;;;;;7.83;3.50;;;;;;;-3.19;71.68;98866.32;250635;1147;23026;-79
2021/01/16 12:51:56;;;;;;;7.03;3.40;;;;;;;-3.25;71.05;98864.47;250545;1147;22983;-78
2021/01/16 12:56:58;;;;;;;8.10;3.33;;;;;;;-3.42;71.31;98863.20;250219;1148;23325;-79
2021/01/16 13:02:00;;;;;;;5.80;2.50;;;;;;;-3.58;71.07;98864.33;250405;1155;24549;-80
2021/01/16 13:07:03;;;;;;;5.53;2.50;;;;;;;-3.69;70.89;98850.79;251008;1150;23045;-78
2021/01/16 13:12:06;;;;;;;6.83;3.20;;;;;;;-3.76;71.21;98849.95;250446;1148;23032;-78
2021/01/16 13:17:17;;;;;;;8.35;3.10;;;;;;;-3.88;71.92;98846.25;250448;1148;24600;-80
2021/01/16 13:22:25;;;;;;;10.17;4.03;;;;;;;-3.88;72.18;98854.11;250451;1155;22960;-78
2021/01/16 13:27:29;;;;;;;8.57;3.87;;;;;;;-3.74;72.22;98841.91;250656;1149;22924;-78
2021/01/16 13:32:33;;;;;;;6.73;3.67;;;;;;;-3.70;72.29;98827.42;250491;1155;22987;-80
2021/01/16 13:37:37;;;;;;;8.20;4.07;;;;;;;-3.67;73.29;98827.83;250098;1148;22954;-78
2021/01/16 13:42:45;;;;;;;6.77;3.83;;;;;;;-3.64;73.08;98830.08;250189;1156;22738;-79
2021/01/16 13:48:00;;;;;;;9.17;3.97;;;;;;;-3.71;73.07;98828.42;250595;1148;22790;-80
2021/01/16 13:53:11;;;;;;;8.60;4.17;;;;;;;-3.77;73.53;98816.91;250637;1152;22953;-79
2021/01/16 13:58:15;;;;;;;8.33;4.40;;;;;;;-3.85;73.37;98812.63;250597;1147;22946;-79
2021/01/16 14:03:26;;;;;;;8.40;4.15;;;;;;;-3.86;74.01;98804.97;250334;1149;22978;-79
2021/01/16 14:08:29;;;;;;;15.27;6.57;;;;;;;-3.80;74.45;98789.30;250369;1148;26376;-79
2021/01/16 14:13:37;;;;;;;12.13;5.63;;;;;;;-3.75;74.52;98786.09;250246;1150;22968;-78
2021/01/16 14:18:43;;;;;;;11.00;4.92;;;;;;;-3.67;74.01;98782.52;250730;1148;26506;-80
2021/01/16 14:23:46;;;;;;;10.57;4.33;;;;;;;-3.65;74.28;98780.50;250402;1155;23861;-80
2021/01/16 14:28:52;;;;;;;7.50;4.17;;;;;;;-3.67;74.14;98767.60;250352;1148;22944;-80
2021/01/16 14:34:02;;;;;;;9.30;4.90;;;;;;;-3.76;74.37;98753.09;250781;1148;22967;-79
2021/01/16 14:39:15;;;;;;;10.50;4.75;;;;;;;-3.80;75.01;98751.86;250258;1148;22969;-80
2021/01/16 14:44:26;;;;;;;11.57;5.93;;;;;;;-3.85;74.63;98764.72;250377;1155;22974;-79
2021/01/16 14:49:34;;;;;;;8.63;5.00;;;;;;;-3.92;74.88;98751.59;250292;1148;24348;-77
2021/01/16 14:54:47;;;;;;;13.03;7.20;;;;;;;-4.06;75.10;98748.11;250434;1151;25532;-80
2021/01/16 14:59:49;;;;;;;12.67;6.73;;;;;;;-4.12;75.61;98746.28;250419;1148;26379;-78
2021/01/16 15:04:51;;;;;;;11.10;5.97;;;;;;;-4.10;75.87;98748.70;250310;1148;26484;-79
2021/01/16 15:09:56;;;;;;;12.10;6.67;;;;;;;-4.17;76.24;98738.19;250682;1148;24602;-75
2021/01/16 15:15:02;;;;;;;14.50;7.77;;;;;;;-4.26;76.78;98741.98;249995;1148;22964;-75
2021/01/16 15:20:05;;;;;;;12.97;7.00;;;;;;;-4.44;77.36;98739.86;250377;1150;23190;-75
2021/01/16 15:25:08;;;;;;;12.50;7.17;;;;;;;-4.59;79.64;98739.95;250357;1147;22958;-76
2021/01/16 15:30:12;;;;;;;12.43;6.73;;;;;;;-4.72;80.43;98738.86;250026;1150;25710;-75
2021/01/16 15:35:14;;;;;;;14.87;7.70;;;;;;;-4.82;81.32;98733.96;250361;1155;22953;-75
2021/01/16 15:40:21;;;;;;;13.60;6.50;;;;;;;-4.83;81.25;98721.08;250342;1148;22995;-75
2021/01/16 15:45:23;;;;;;;17.80;7.53;;;;;;;-4.93;81.20;98716.19;250455;1147;22967;-77
2021/01/16 15:50:31;;;;;;;18.20;9.43;;;;;;;-5.01;81.38;98706.70;250021;1148;22982;-74
2021/01/16 15:55:34;;;;;;;19.00;9.47;;;;;;;-4.95;81.07;98707.74;250221;1149;23026;-75
2021/01/16 16:00:38;;;;;;;18.50;9.27;;;;;;;-4.98;80.52;98697.64;250392;1148;22952;-75
2021/01/16 16:05:43;;;;;;;19.73;8.37;;;;;;;-5.02;81.18;98686.78;250470;1152;22970;-74
2021/01/16 16:10:51;;;;;;;19.93;9.20;;;;;;;-5.08;81.16;98690.13;250593;1148;22938;-74
2021/01/16 16:15:53;;;;;;;19.73;10.07;;;;;;;-5.13;81.13;98687.30;250291;1148;24442;-73
2021/01/16 16:20:57;;;;;;;15.77;7.53;;;;;;;-5.12;82.05;98686.31;250373;1150;22995;-75
2021/01/16 16:25:59;;;;;;;20.80;9.03;;;;;;;-5.15;82.67;98684.05;250421;1148;23004;-76
2021/01/16 16:31:02;;;;;;;21.80;9.33;;;;;;;-5.13;82.41;98682.08;250234;1149;22949;-73
2021/01/16 16:36:06;;;;;;;23.50;9.67;;;;;;;-5.12;82.57;98669.81;250566;1148;22950;-75
2021/01/16 16:41:09;;;;;;;25.43;9.33;;;;;;;-5.16;82.75;98664.17;250522;1148;23311;-75
2021/01/16 16:46:11;;;;;;;18.60;8.23;;;;;;;-5.16;83.07;98672.02;250718;1148;24448;-76
2021/01/16 16:51:13;;;;;;;14.00;6.70;;;;;;;-5.20;83.99;98665.55;250590;1148;22967;-75
2021/01/16 16:56:17;;;;;;;10.73;5.80;;;;;;;-5.21;83.90;98653.48;250480;1151;23037;-76
2021/01/16 17:01:20;;;;;;;10.27;5.40;;;;;;;-5.22;83.55;98647.45;250569;1150;23418;-75
2021/01/16 17:06:22;;;;;;;11.37;6.57;;;;;;;-5.19;83.41;98647.08;250583;1148;26652;-75
2021/01/16 17:11:24;;;;;;;14.97;8.10;;;;;;;-5.18;83.23;98642.64;250094;1148;23100;-79
2021/01/16 17:16:26;;;;;;;15.77;7.80;;;;;;;-5.17;83.16;98633.82;250070;1151;22969;-77
2021/01/16 17:21:35;;;;;;;17.65;8.60;;;;;;;-5.13;82.88;98622.00;249762;1148;27636;-74
2021/01/16 17:26:38;;;;;;;18.53;7.27;;;;;;;-5.14;82.95;98622.98;250042;1148;23113;-75
2021/01/16 17:31:41;;;;;;;19.73;8.47;;;;;;;-5.13;82.86;98616.77;249946;1151;22929;-77
2021/01/16 17:36:44;;;;;;;16.37;7.47;;;;;;;-5.11;82.72;98613.97;250027;1148;24775;-77
2021/01/16 17:41:46;;;;;;;19.40;8.50;;;;;;;-5.05;82.36;98611.41;250113;1148;23055;-79
2021/01/16 17:46:48;;;;;;;19.67;7.80;;;;;;;-5.04;82.42;98601.75;250176;1148;23050;-77
2021/01/16 17:51:50;;;;;;;30.90;14.47;;;;;;;-4.94;82.93;98604.82;249851;1148;22975;-77
2021/01/16 17:56:54;;;;;;;16.55;8.25;;;;;;;-4.89;82.48;98612.11;249918;1148;27716;-77
2021/01/16 18:01:58;;;;;;;14.70;6.80;;;;;;;-4.85;82.24;98592.43;250108;1148;22905;-77
2021/01/16 18:07:05;;;;;;;11.95;5.40;;;;;;;-4.89;82.06;98576.31;250001;1148;22949;-77
2021/01/16 18:12:08;;;;;;;13.53;6.30;;;;;;;-4.94;81.78;98572.67;249695;1155;22949;-77
2021/01/16 18:17:10;;;;;;;13.90;7.20;;;;;;;-4.93;82.34;98571.68;249677;1156;22969;-77
2021/01/16 18:22:12;;;;;;;17.20;7.50;;;;;;;-4.88;81.92;98580.55;249885;1148;23357;-76
2021/01/16 18:27:15;;;;;;;12.57;6.27;;;;;;;-4.93;81.82;98569.06;249908;1148;22998;-77
2021/01/16 18:32:17;;;;;;;14.43;6.80;;;;;;;-4.95;81.42;98566.65;250219;1148;22966;-77
2021/01/16 18:37:20;;;;;;;18.80;8.30;;;;;;;-5.02;81.71;98552.75;249847;1148;22957;-76
2021/01/16 18:42:22;;;;;;;15.93;7.77;;;;;;;-5.09;82.58;98550.09;250046;1148;22800;-78
2021/01/16 18:47:25;;;;;;;20.85;9.30;;;;;;;-5.12;83.61;98540.03;250298;1148;27681;-77
2021/01/16 18:52:30;;;;;;;17.13;9.03;;;;;;;-5.18;84.06;98536.36;249779;1148;22915;-75
2021/01/16 18:57:36;;;;;;;15.93;7.87;;;;;;;-5.29;84.40;98523.84;249963;1148;23001;-76
2021/01/16 19:02:39;;;;;;;18.90;8.57;;;;;;;-5.28;86.76;98522.05;250013;1148;22973;-77
2021/01/16 19:07:45;;;;;;;19.10;8.70;;;;;;;-5.28;87.26;98517.63;250006;1156;22979;-77
2021/01/16 19:12:48;;;;;;;19.47;9.10;;;;;;;-5.30;87.64;98513.59;249771;1148;22957;-76
2021/01/16 19:17:55;;;;;;;20.50;10.30;;;;;;;-5.31;88.01;98504.95;249850;1156;22948;-77
2021/01/16 19:22:58;;;;;;;15.70;7.23;;;;;;;-5.28;88.42;98519.44;249926;1148;23109;-76
2021/01/16 19:28:00;;;;;;;20.50;9.23;;;;;;;-5.31;88.81;98515.41;249719;1148;26432;-77
2021/01/16 19:33:04;;;;;;;20.50;9.17;;;;;;;-5.33;89.80;98510.38;249806;1148;22976;-77
2021/01/16 19:38:06;;;;;;;21.47;9.80;;;;;;;-5.31;90.38;98501.55;249886;1148;22935;-79
2021/01/16 19:43:09;;;;;;;22.13;10.67;;;;;;;-5.27;90.10;98498.36;250282;1148;22915;-78
2021/01/16 19:48:11;;;;;;;18.20;8.10;;;;;;;-5.23;90.19;98493.53;250154;1148;22945;-77
2021/01/16 19:53:15;;;;;;;16.20;8.07;;;;;;;-5.21;90.56;98481.91;250238;1148;26992;-77
2021/01/16 19:58:17;;;;;;;13.80;7.70;;;;;;;-5.18;90.67;98489.34;249980;1148;23091;-79
2021/01/16 20:03:22;;;;;;;17.45;9.10;;;;;;;-5.09;90.94;98483.96;250101;1148;22943;-78
2021/01/16 20:08:25;;;;;;;15.97;8.17;;;;;;;-5.03;90.82;98486.61;250255;1153;23045;-77
2021/01/16 20:13:28;;;;;;;18.57;9.37;;;;;;;-4.95;90.90;98482.22;249967;1148;23026;-76
2021/01/16 20:18:30;;;;;;;19.57;9.93;;;;;;;-4.87;90.87;98472.42;249871;1148;22962;-78
2021/01/16 20:23:32;;;;;;;18.60;8.97;;;;;;;-4.80;90.77;98475.03;249988;1148;22921;-77
2021/01/16 20:28:34;;;;;;;17.73;9.73;;;;;;;-4.76;90.71;98472.84;250119;1150;22949;-78
2021/01/16 20:33:37;;;;;;;15.25;7.40;;;;;;;-4.66;90.97;98468.04;250155;1148;22946;-78
2021/01/16 20:38:39;;;;;;;17.90;8.63;;;;;;;-4.64;90.64;98464.23;249986;1148;22978;-78
2021/01/16 20:43:45;;;;;;;20.57;10.33;;;;;;;-4.60;90.62;98464.66;249915;1148;22975;-78
2021/01/16 20:48:48;;;;;;;23.17;10.93;;;;;;;-4.55;90.48;98451.78;250081;1155;23115;-77
2021/01/16 20:53:53;;;;;;;18.90;10.03;;;;;;;-4.50;90.62;98448.59;249740;1149;22955;-77
2021/01/16 20:58:56;;;;;;;18.77;10.13;;;;;;;-4.46;90.39;98444.58;249965;1148;22949;-76
2021/01/16 21:03:58;;;;;;;19.87;9.67;;;;;;;-4.43;90.36;98438.14;249901;1148;22948;-77
2021/01/16 21:09:00;;;;;;;18.23;9.13;;;;;;;-4.38;90.59;98436.55;249979;1149;22960;-77
2021/01/16 21:14:02;;;;;;;18.30;10.17;;;;;;;-4.35;90.19;98428.30;249752;1148;23434;-77
2021/01/16 21:19:05;;;;;;;15.83;8.67;;;;;;;-4.33;90.14;98423.66;250053;1156;23354;-81
2021/01/16 21:24:07;;;;;;;18.17;8.97;;;;;;;-4.35;89.54;98414.39;249836;1151;22979;-77
2021/01/16 21:29:09;;;;;;;18.70;9.70;;;;;;;-4.36;89.73;98418.03;249796;1150;24555;-76
2021/01/16 21:34:11;;;;;;;17.53;9.47;;;;;;;-4.38;89.52;98401.72;249754;1148;22971;-77
2021/01/16 21:39:14;;;;;;;16.57;9.40;;;;;;;-4.35;89.32;98409.16;250165;1148;22978;-78
2021/01/16 21:44:17;;;;;;;12.80;7.53;;;;;;;-4.34;89.13;98406.38;250119;1148;23100;-77
2021/01/16 21:49:19;;;;;;;16.93;8.13;;;;;;;-4.38;89.08;98407.78;250167;1148;23142;-77
2021/01/16 21:54:21;;;;;;;17.50;8.90;;;;;;;-4.42;88.88;98406.56;249892;1148;23131;-79
2021/01/16 21:59:22;;;;;;;14.05;8.00;;;;;;;-4.42;88.69;98408.36;250132;1148;26407;-77
2021/01/16 22:04:25;;;;;;;14.23;7.50;;;;;;;-4.40;88.55;98404.54;250086;1149;22971;-76
2021/01/16 22:09:27;;;;;;;15.27;8.57;;;;;;;-4.40;88.90;98394.08;250318;1156;22907;-77
2021/01/16 22:14:29;;;;;;;14.55;7.00;;;;;;;-4.38;88.87;98399.93;249813;1148;22980;-76
2021/01/16 22:19:36;;;;;;;15.73;7.33;;;;;;;-4.36;88.33;98399.73;249875;1148;23024;-77
2021/01/16 22:24:39;;;;;;;16.03;8.30;;;;;;;-4.36;88.64;98395.29;249859;1148;23054;-77
2021/01/16 22:29:42;;;;;;;14.43;7.00;;;;;;;-4.41;88.51;98389.84;249942;1155;22984;-78
2021/01/16 22:34:44;;;;;;;15.10;7.25;;;;;;;-4.40;88.38;98382.83;249885;1148;24403;-77
2021/01/16 22:39:47;;;;;;;13.93;6.03;;;;;;;-4.40;88.38;98367.14;250234;1148;23661;-75
2021/01/16 22:44:49;;;;;;;12.33;5.87;;;;;;;-4.37;88.61;98364.11;250087;1148;22966;-78
2021/01/16 22:49:51;;;;;;;11.60;5.67;;;;;;;-4.38;88.19;98370.34;250240;1148;22950;-75
2021/01/16 22:54:53;;;;;;;14.50;6.43;;;;;;;-4.37;88.08;98369.34;249851;1148;25982;-77
2021/01/16 22:59:55;;;;;;;10.13;5.20;;;;;;;-4.38;88.21;98379.02;250020;1148;22984;-77
2021/01/16 23:04:57;;;;;;;11.10;5.53;;;;;;;-4.39;88.05;98368.72;250089;1153;22945;-78
2021/01/16 23:10:00;;;;;;;9.40;4.90;;;;;;;-4.41;87.68;98368.92;249780;1148;22966;-77
2021/01/16 23:15:07;;;;;;;12.53;6.47;;;;;;;-4.39;87.75;98361.70;249855;1155;23027;-75
2021/01/16 23:20:14;;;;;;;9.30;5.17;;;;;;;-4.38;87.92;98354.66;250151;1151;22949;-78
2021/01/16 23:25:17;;;;;;;8.73;5.30;;;;;;;-4.42;87.80;98338.58;250014;1153;22937;-78